createdAt,value
2023-03-26T00:02:47.856Z,99848.34
2023-03-26T00:06:09.609Z,99857.94
2023-03-26T00:09:17.791Z,99846.72
2023-03-26T00:12:29.288Z,99833.50
2023-03-26T00:15:37.284Z,99840.56
2023-03-26T00:18:46.227Z,99840.56
2023-03-26T00:21:53.783Z,99840.75
2023-03-26T00:25:03.713Z,99849.69
2023-03-26T00:28:12.850Z,99844.22
2023-03-26T00:31:21.584Z,99843.59
2023-03-26T00:34:29.273Z,99840.44
2023-03-26T00:37:40.929Z,99844.03
2023-03-26T00:40:51.164Z,99842.91
2023-03-26T00:44:08.454Z,99842.69
2023-03-26T00:47:16.576Z,99844.72
2023-03-26T00:50:26.594Z,99838.28
2023-03-26T00:53:33.869Z,99829.03
2023-03-26T00:56:43.895Z,99833.78
2023-03-26T00:59:53.877Z,99832.63
2023-03-26T01:03:03.086Z,99822.25
2023-03-26T01:06:23.707Z,99826.22
2023-03-26T01:09:39.078Z,99826.06
2023-03-26T01:12:46.235Z,99819.94
2023-03-26T01:15:59.975Z,99815.97
2023-03-26T01:19:18.038Z,99820.38
2023-03-26T01:22:27.339Z,99821.72
2023-03-26T01:25:41.283Z,99824.47
2023-03-26T01:28:53.951Z,99821.59
2023-03-26T01:32:19.291Z,99823.94
2023-03-26T01:35:52.378Z,99830.72
2023-03-26T01:39:03.473Z,99832.13
2023-03-26T01:42:15.440Z,99831.81
2023-03-26T01:45:25.634Z,99827.97
2023-03-26T01:48:35.578Z,99833.78
2023-03-26T01:51:45.910Z,99843.09
2023-03-26T01:54:55.406Z,99834.19
2023-03-26T01:58:10.448Z,99825.06
2023-03-26T02:01:33.505Z,99833.13
2023-03-26T02:04:56.157Z,99836.06
2023-03-26T02:08:04.361Z,99845.47
2023-03-26T02:11:14.313Z,99846.72
2023-03-26T02:14:23.925Z,99851.00
2023-03-26T02:17:35.047Z,99855.94
2023-03-26T02:20:44.207Z,99858.06
2023-03-26T02:23:58.228Z,99861.50
2023-03-26T02:27:08.792Z,99856.69
2023-03-26T02:30:19.023Z,99863.28
2023-03-26T02:33:27.520Z,99858.22
2023-03-26T02:36:37.892Z,99855.84
2023-03-26T02:39:47.592Z,99846.72
2023-03-26T02:42:57.086Z,99844.19
2023-03-26T02:46:04.677Z,99836.72
2023-03-26T02:49:15.550Z,99838.91
2023-03-26T02:52:28.847Z,99835.69
2023-03-26T02:55:37.110Z,99831.81
2023-03-26T02:58:45.541Z,99830.66
2023-03-26T03:01:54.652Z,99822.72
2023-03-26T03:05:09.612Z,99822.41
2023-03-26T03:08:19.515Z,99835.34
2023-03-26T03:11:32.541Z,99837.34
2023-03-26T03:14:39.123Z,99827.56
2023-03-26T03:17:49.294Z,99823.50
2023-03-26T03:20:56.869Z,99827.28
2023-03-26T03:24:07.673Z,99832.63
2023-03-26T03:27:20.011Z,99835.84
2023-03-26T03:30:31.616Z,99835.91
2023-03-26T03:33:42.851Z,99843.34
2023-03-26T03:36:52.052Z,99837.44
2023-03-26T03:40:03.240Z,99828.84
2023-03-26T03:43:18.410Z,99825.44
2023-03-26T03:46:27.634Z,99825.75
2023-03-26T03:49:37.737Z,99838.53
2023-03-26T03:52:46.900Z,99847.78
2023-03-26T03:55:56.693Z,99851.25
2023-03-26T03:59:06.322Z,99839.06
2023-03-26T04:02:14.315Z,99843.09
2023-03-26T04:05:22.957Z,99843.28
2023-03-26T04:08:37.295Z,99852.28
2023-03-26T04:11:46.278Z,99851.06
2023-03-26T04:14:58.316Z,99849.03
2023-03-26T04:18:11.961Z,99862.47
2023-03-26T04:21:21.261Z,99853.09
2023-03-26T04:24:31.465Z,99865.25
2023-03-26T04:27:45.550Z,99856.75
2023-03-26T04:30:59.070Z,99850.13
2023-03-26T04:34:17.336Z,99854.84
2023-03-26T04:37:41.720Z,99846.72
2023-03-26T04:40:51.792Z,99848.16
2023-03-26T04:44:06.415Z,99844.88
2023-03-26T04:47:16.291Z,99851.56
2023-03-26T04:50:24.954Z,99865.53
2023-03-26T04:53:33.321Z,99864.97
2023-03-26T04:56:54.345Z,99866.03
2023-03-26T05:00:05.631Z,99866.78
2023-03-26T05:03:14.943Z,99864.53
2023-03-26T05:06:26.832Z,99856.97
2023-03-26T05:09:36.385Z,99857.84
2023-03-26T05:12:48.451Z,99854.66
2023-03-26T05:15:57.488Z,99845.91
2023-03-26T05:19:08.120Z,99858.88
2023-03-26T05:22:16.818Z,99851.09
2023-03-26T05:25:34.512Z,99856.75
2023-03-26T05:28:47.372Z,99853.12
2023-03-26T05:32:02.920Z,99849.66
2023-03-26T05:35:11.735Z,99853.47
2023-03-26T05:38:20.934Z,99837.62
2023-03-26T05:41:29.980Z,99838.59
2023-03-26T05:44:39.267Z,99850.34
2023-03-26T05:47:52.358Z,99844.53
2023-03-26T05:51:03.123Z,99848.69
2023-03-26T05:54:10.467Z,99847.53
2023-03-26T05:57:20.145Z,99858.09
2023-03-26T06:00:32.011Z,99855.81
2023-03-26T06:03:41.163Z,99854.22
2023-03-26T06:06:48.713Z,99843.56
2023-03-26T06:09:58.142Z,99846.84
2023-03-26T06:13:07.596Z,99845.38
2023-03-26T06:16:26.957Z,99842.25
2023-03-26T06:19:36.487Z,99845.50
2023-03-26T06:22:45.704Z,99842.41
2023-03-26T06:25:56.669Z,99834.66
2023-03-26T06:29:07.985Z,99839.28
2023-03-26T06:32:20.483Z,99836.59
2023-03-26T06:35:31.072Z,99842.03
2023-03-26T06:38:38.190Z,99840.25
2023-03-26T06:41:48.042Z,99843.34
2023-03-26T06:44:58.337Z,99852.50
2023-03-26T06:48:11.732Z,99849.53
2023-03-26T06:51:21.477Z,99846.44
2023-03-26T06:54:32.786Z,99848.50
2023-03-26T06:57:41.336Z,99849.56
2023-03-26T07:00:49.424Z,99856.66
2023-03-26T07:04:01.168Z,99851.19
2023-03-26T07:07:25.673Z,99851.53
2023-03-26T07:10:37.392Z,99841.28
2023-03-26T07:13:49.487Z,99838.56
2023-03-26T07:16:59.305Z,99833.50
2023-03-26T07:20:11.181Z,99830.69
2023-03-26T07:23:24.330Z,99834.00
2023-03-26T07:26:47.791Z,99832.34
2023-03-26T07:30:07.796Z,99838.34
2023-03-26T07:33:32.764Z,99833.16
2023-03-26T07:37:01.023Z,99834.28
2023-03-26T07:40:21.591Z,99844.91
2023-03-26T07:43:29.227Z,99843.78
2023-03-26T07:46:39.032Z,99837.84
2023-03-26T07:49:45.281Z,99837.28
2023-03-26T07:52:51.727Z,99845.75
2023-03-26T07:56:12.779Z,99832.81
2023-03-26T07:59:35.634Z,99839.59
2023-03-26T08:02:48.184Z,99832.97
2023-03-26T08:06:06.443Z,99843.69
2023-03-26T08:09:37.904Z,99839.97
2023-03-26T08:12:56.344Z,99836.22
2023-03-26T08:16:09.461Z,99853.41
2023-03-26T08:19:28.844Z,99838.88
2023-03-26T08:22:39.657Z,99839.75
2023-03-26T08:25:54.489Z,99845.03
2023-03-26T08:29:12.799Z,99842.41
2023-03-26T08:32:20.389Z,99848.47
2023-03-26T08:35:28.013Z,99841.72
2023-03-26T08:38:39.158Z,99845.34
2023-03-26T08:42:05.916Z,99834.16
2023-03-26T08:45:32.714Z,99834.53
2023-03-26T08:49:04.443Z,99840.78
2023-03-26T08:52:13.135Z,99837.25
2023-03-26T08:55:39.725Z,99837.41
2023-03-26T08:58:49.898Z,99828.69
2023-03-26T09:01:58.323Z,99825.81
2023-03-26T09:05:25.849Z,99821.50
2023-03-26T09:08:53.832Z,99819.84
2023-03-26T09:12:21.011Z,99825.22
2023-03-26T09:15:36.871Z,99810.37
2023-03-26T09:18:55.607Z,99811.59
2023-03-26T09:22:03.189Z,99813.25
2023-03-26T09:25:27.452Z,99818.25
2023-03-26T09:28:53.265Z,99804.13
2023-03-26T09:32:16.432Z,99817.09
2023-03-26T09:35:44.352Z,99802.41
2023-03-26T09:39:03.278Z,99802.78
2023-03-26T09:42:28.454Z,99792.25
2023-03-26T09:45:44.937Z,99790.53
2023-03-26T09:48:57.270Z,99789.00
2023-03-26T09:52:22.542Z,99782.47
2023-03-26T09:55:42.650Z,99785.97
2023-03-26T09:58:52.301Z,99770.72
2023-03-26T10:02:05.710Z,99766.78
2023-03-26T10:05:35.524Z,99754.50
2023-03-26T10:08:47.451Z,99756.75
2023-03-26T10:12:12.166Z,99752.84
2023-03-26T10:15:39.407Z,99743.63
2023-03-26T10:19:10.291Z,99733.87
2023-03-26T10:22:28.336Z,99729.75
2023-03-26T10:25:44.108Z,99738.66
2023-03-26T10:28:55.713Z,99734.63
2023-03-26T10:32:20.979Z,99734.19
2023-03-26T10:35:55.060Z,99733.03
2023-03-26T10:39:11.781Z,99725.91
2023-03-26T10:43:01.658Z,99724.94
2023-03-26T10:46:26.797Z,99728.31
2023-03-26T10:49:42.311Z,99715.81
2023-03-26T10:52:57.092Z,99712.91
2023-03-26T10:56:25.171Z,99714.50
2023-03-26T10:59:32.640Z,99710.78
2023-03-26T11:02:45.668Z,99714.28
2023-03-26T11:06:11.467Z,99697.06
2023-03-26T11:09:29.920Z,99689.13
2023-03-26T11:12:53.853Z,99689.75
2023-03-26T11:16:08.104Z,99675.47
2023-03-26T11:19:18.186Z,99676.47
2023-03-26T11:22:32.639Z,99664.81
2023-03-26T11:25:48.521Z,99657.56
2023-03-26T11:29:03.570Z,99649.53
2023-03-26T11:32:18.032Z,99642.50
2023-03-26T11:35:40.434Z,99640.38
2023-03-26T11:38:57.589Z,99635.66
2023-03-26T11:42:07.879Z,99633.38
2023-03-26T11:45:20.160Z,99618.94
2023-03-26T11:48:35.978Z,99615.94
2023-03-26T11:51:46.389Z,99614.75
2023-03-26T11:54:55.890Z,99604.00
2023-03-26T11:58:06.838Z,99591.09
2023-03-26T12:01:23.083Z,99591.59
2023-03-26T12:04:41.848Z,99585.91
2023-03-26T12:07:51.284Z,99563.06
2023-03-26T12:11:05.394Z,99555.38
2023-03-26T12:14:20.440Z,99550.13
2023-03-26T12:17:33.427Z,99551.03
2023-03-26T12:20:39.524Z,99543.59
2023-03-26T12:24:00.241Z,99532.84
2023-03-26T12:27:08.901Z,99514.72
2023-03-26T12:30:30.261Z,99517.84
2023-03-26T12:33:36.358Z,99498.91
2023-03-26T12:36:50.141Z,99498.81
2023-03-26T12:40:17.058Z,99490.41
2023-03-26T12:44:53.414Z,99481.41
2023-03-26T12:47:57.824Z,99479.97
2023-03-26T12:50:54.749Z,99478.16
2023-03-26T12:54:15.580Z,99458.84
2023-03-26T12:57:43.373Z,99457.06
2023-03-26T13:01:08.807Z,99444.59
2023-03-26T13:04:35.566Z,99437.09
2023-03-26T13:07:45.068Z,99459.34
2023-03-26T13:11:10.736Z,99445.72
2023-03-26T13:14:35.536Z,99443.16
2023-03-26T13:17:51.715Z,99427.63
2023-03-26T13:20:59.884Z,99425.66
2023-03-26T13:24:30.069Z,99420.22
2023-03-26T13:27:46.003Z,99405.78
2023-03-26T13:30:55.965Z,99405.06
2023-03-26T13:34:01.515Z,99399.94
2023-03-26T13:37:12.119Z,99392.22
2023-03-26T13:40:25.769Z,99396.50
2023-03-26T13:43:51.042Z,99385.03
2023-03-26T13:47:05.320Z,99379.31
2023-03-26T13:50:22.012Z,99376.34
2023-03-26T13:53:31.873Z,99383.13
2023-03-26T13:56:57.426Z,99367.66
2023-03-26T14:00:07.823Z,99358.03
2023-03-26T14:03:26.190Z,99348.59
2023-03-26T14:06:36.133Z,99345.50
2023-03-26T14:10:20.999Z,99344.97
2023-03-26T14:13:40.521Z,99353.84
2023-03-26T14:16:51.837Z,99324.19
2023-03-26T14:20:21.001Z,99334.53
2023-03-26T14:23:36.895Z,99329.25
2023-03-26T14:26:48.737Z,99322.06
2023-03-26T14:30:00.989Z,99311.94
2023-03-26T14:33:35.359Z,99313.72
2023-03-26T14:36:48.613Z,99309.94
2023-03-26T14:40:00.103Z,99297.56
2023-03-26T14:43:30.603Z,99297.19
2023-03-26T14:46:54.243Z,99293.75
2023-03-26T14:50:06.279Z,99287.75
2023-03-26T14:53:47.806Z,99279.78
2023-03-26T14:57:14.210Z,99285.19
2023-03-26T15:00:45.888Z,99275.22
2023-03-26T15:04:10.786Z,99261.50
2023-03-26T15:07:35.153Z,99245.09
2023-03-26T15:10:49.665Z,99240.28
2023-03-26T15:14:12.766Z,99241.50
2023-03-26T15:17:32.293Z,99239.69
2023-03-26T15:20:59.726Z,99236.66
2023-03-26T15:24:13.364Z,99229.22
2023-03-26T15:27:43.024Z,99228.63
2023-03-26T15:31:00.879Z,99213.28
2023-03-26T15:34:12.546Z,99214.75
2023-03-26T15:37:35.426Z,99211.03
2023-03-26T15:41:01.779Z,99201.81
2023-03-26T15:44:24.640Z,99205.09
2023-03-26T15:47:36.557Z,99206.47
2023-03-26T15:50:56.785Z,99203.91
2023-03-26T15:54:09.135Z,99196.25
2023-03-26T15:57:32.692Z,99192.63
2023-03-26T16:00:49.385Z,99196.56
2023-03-26T16:03:58.556Z,99183.44
2023-03-26T16:07:05.093Z,99170.16
2023-03-26T16:10:35.533Z,99167.84
2023-03-26T16:13:43.649Z,99166.44
2023-03-26T16:16:58.432Z,99157.72
2023-03-26T16:20:24.556Z,99144.00
2023-03-26T16:23:47.494Z,99138.41
2023-03-26T16:27:00.939Z,99127.00
2023-03-26T16:30:20.748Z,99124.28
2023-03-26T16:33:36.772Z,99131.91
2023-03-26T16:36:43.266Z,99127.13
2023-03-26T16:39:48.138Z,99126.03
2023-03-26T16:43:12.147Z,99130.22
2023-03-26T16:46:28.113Z,99130.44
2023-03-26T16:50:07.494Z,99126.66
2023-03-26T16:53:18.106Z,99124.25
2023-03-26T16:57:02.898Z,99134.03
2023-03-26T17:00:18.433Z,99131.53
2023-03-26T17:03:36.609Z,99128.22
2023-03-26T17:07:02.257Z,99131.41
2023-03-26T17:10:15.208Z,99129.81
2023-03-26T17:13:28.566Z,99131.00
2023-03-26T17:16:37.536Z,99126.28
2023-03-26T17:19:57.157Z,99130.13
2023-03-26T17:23:11.004Z,99130.53
2023-03-26T17:26:23.004Z,99131.72
2023-03-26T17:29:44.833Z,99129.84
2023-03-26T17:33:01.167Z,99137.19
2023-03-26T17:36:14.738Z,99132.19
2023-03-26T17:39:21.821Z,99136.88
2023-03-26T17:42:28.946Z,99129.53
2023-03-26T17:45:35.717Z,99132.56
2023-03-26T17:48:50.793Z,99122.63
2023-03-26T17:51:59.351Z,99131.81
2023-03-26T17:55:10.512Z,99122.72
2023-03-26T17:58:26.307Z,99124.97
2023-03-26T18:01:37.658Z,99119.63
2023-03-26T18:04:49.523Z,99125.63
2023-03-26T18:08:15.486Z,99133.22
2023-03-26T18:11:25.926Z,99129.31
2023-03-26T18:14:50.311Z,99136.66
2023-03-26T18:18:02.785Z,99127.84
2023-03-26T18:21:14.859Z,99121.03
2023-03-26T18:24:29.212Z,99126.00
2023-03-26T18:27:47.780Z,99124.53
2023-03-26T18:30:54.620Z,99120.00
2023-03-26T18:34:09.463Z,99120.66
2023-03-26T18:37:21.981Z,99112.81
2023-03-26T18:40:34.782Z,99105.69
2023-03-26T18:43:44.356Z,99100.97
2023-03-26T18:46:56.424Z,99091.78
2023-03-26T18:50:06.431Z,99089.38
2023-03-26T18:53:22.790Z,99090.25
2023-03-26T18:56:38.879Z,99086.16
2023-03-26T18:59:46.448Z,99084.06
2023-03-26T19:03:05.025Z,99073.69
2023-03-26T19:06:17.431Z,99066.56
2023-03-26T19:09:32.214Z,99052.06
2023-03-26T19:12:41.277Z,99053.75
2023-03-26T19:15:51.057Z,99047.66
2023-03-26T19:18:55.597Z,99042.56
2023-03-26T19:22:00.132Z,99043.56
2023-03-26T19:25:09.215Z,99039.69
2023-03-26T19:28:24.311Z,99042.09
2023-03-26T19:31:37.823Z,99034.94
2023-03-26T19:34:47.600Z,99033.94
2023-03-26T19:37:58.000Z,99029.72
2023-03-26T19:41:05.990Z,99031.56
2023-03-26T19:44:30.647Z,99020.75
2023-03-26T19:47:48.592Z,99004.75
2023-03-26T19:51:04.205Z,98998.88
2023-03-26T19:54:17.136Z,98992.34
2023-03-26T19:57:25.833Z,98983.12
2023-03-26T20:00:36.285Z,98973.06
2023-03-26T20:03:46.600Z,98967.97
2023-03-26T20:06:56.630Z,98961.88
2023-03-26T20:10:03.444Z,98960.28
2023-03-26T20:13:18.877Z,98949.81
2023-03-26T20:16:30.501Z,98944.94
2023-03-26T20:19:36.290Z,98931.84
2023-03-26T20:22:43.161Z,98924.31
2023-03-26T20:25:53.201Z,98926.19
2023-03-26T20:29:04.803Z,98921.34
2023-03-26T20:32:26.984Z,98918.91
2023-03-26T20:35:36.663Z,98912.63
2023-03-26T20:38:47.057Z,98910.53
2023-03-26T20:41:55.459Z,98901.97
2023-03-26T20:45:03.420Z,98899.31
2023-03-26T20:48:13.699Z,98892.72
2023-03-26T20:51:23.279Z,98886.00
2023-03-26T20:54:32.373Z,98889.69
2023-03-26T20:57:42.195Z,98888.44
2023-03-26T21:00:53.850Z,98875.78
2023-03-26T21:04:01.513Z,98874.41
2023-03-26T21:07:18.202Z,98874.81
2023-03-26T21:10:27.230Z,98862.28
2023-03-26T21:13:32.463Z,98853.66
2023-03-26T21:16:37.832Z,98855.69
2023-03-26T21:19:45.776Z,98853.69
2023-03-26T21:23:05.832Z,98849.63
2023-03-26T21:26:20.451Z,98860.84
2023-03-26T21:29:31.621Z,98900.16
2023-03-26T21:32:38.742Z,98914.78
2023-03-26T21:35:44.303Z,98913.19
2023-03-26T21:38:51.784Z,98912.44
2023-03-26T21:42:05.328Z,98907.62
2023-03-26T21:45:18.357Z,98904.66
2023-03-26T21:48:28.818Z,98901.38
2023-03-26T21:51:39.314Z,98905.69
2023-03-26T21:54:46.867Z,98916.50
2023-03-26T21:58:12.472Z,98926.28
2023-03-26T22:01:21.024Z,98912.44
2023-03-26T22:04:38.914Z,98908.34
2023-03-26T22:07:48.857Z,98906.28
2023-03-26T22:10:56.225Z,98900.81
2023-03-26T22:14:04.761Z,98892.41
2023-03-26T22:17:18.546Z,98894.25
2023-03-26T22:20:30.258Z,98889.34
2023-03-26T22:23:45.778Z,98886.50
2023-03-26T22:26:52.069Z,98881.00
2023-03-26T22:30:01.824Z,98873.47
2023-03-26T22:33:12.247Z,98870.22
2023-03-26T22:36:23.521Z,98876.50
2023-03-26T22:39:31.319Z,98875.00
2023-03-26T22:42:45.116Z,98871.84
2023-03-26T22:45:56.183Z,98874.13
2023-03-26T22:49:08.886Z,98871.81
2023-03-26T22:52:17.005Z,98862.09
2023-03-26T22:55:29.061Z,98855.22
2023-03-26T22:58:38.939Z,98852.75
2023-03-26T23:01:47.647Z,98842.69
2023-03-26T23:04:57.752Z,98837.59
2023-03-26T23:08:06.847Z,98833.28
2023-03-26T23:11:19.213Z,98829.78
2023-03-26T23:14:34.290Z,98832.44
2023-03-26T23:17:41.778Z,98828.84
2023-03-26T23:20:59.329Z,98822.53
2023-03-26T23:24:10.981Z,98825.28
2023-03-26T23:27:24.166Z,98808.66
2023-03-26T23:30:31.703Z,98805.37
2023-03-26T23:33:47.279Z,98800.25
2023-03-26T23:36:58.961Z,98809.44
2023-03-26T23:40:11.959Z,98798.66
2023-03-26T23:43:21.017Z,98796.19
2023-03-26T23:46:35.624Z,98782.19
2023-03-26T23:49:44.694Z,98790.91
2023-03-26T23:52:53.763Z,98777.69
2023-03-26T23:56:01.489Z,98769.06
2023-03-26T23:59:10.263Z,98757.41
